Aviation Digital Data Service (ADDS)

Output produced by TAFs form (1459 UTC 28 June 2016)
found at http://www.aviationweather.gov/adds/tafs/
 
KMDT 281315Z 2813/2912 14003KT 4SM HZ OVC010 
     FM281430 15004KT 6SM HZ BKN013 
     FM281600 17005KT P6SM SCT050 
     FM282000 19008KT P6SM VCSH BKN050 
     FM290500 29008KT P6SM SCT040